createdAt,value
2022-11-01T00:02:15.206Z,11.20
2022-11-01T00:04:42.324Z,11.10
2022-11-01T00:07:09.583Z,11.10
2022-11-01T00:09:36.593Z,11.10
2022-11-01T00:12:03.880Z,11.10
2022-11-01T00:14:30.941Z,11.10
2022-11-01T00:16:58.127Z,11.20
2022-11-01T00:19:25.340Z,11.20
2022-11-01T00:21:52.429Z,11.40
2022-11-01T00:24:19.838Z,11.40
2022-11-01T00:29:14.184Z,11.60
2022-11-01T00:31:41.198Z,11.60
2022-11-01T00:34:08.558Z,11.70
2022-11-01T00:36:36.840Z,11.70
2022-11-01T00:39:05.010Z,11.70
2022-11-01T00:41:32.048Z,11.70
2022-11-01T00:43:59.481Z,11.60
2022-11-01T00:46:26.584Z,11.60
2022-11-01T00:48:53.641Z,11.50
2022-11-01T00:51:20.875Z,11.60
2022-11-01T00:53:47.932Z,11.60
2022-11-01T00:56:15.226Z,11.60
2022-11-01T00:58:42.423Z,11.60
2022-11-01T01:01:09.897Z,11.60
2022-11-01T01:03:37.070Z,11.60
2022-11-01T01:06:04.850Z,11.50
2022-11-01T01:08:31.874Z,11.40
2022-11-01T01:10:58.992Z,11.30
2022-11-01T01:13:26.261Z,11.40
2022-11-01T01:15:53.276Z,11.60
2022-11-01T01:18:20.269Z,11.70
2022-11-01T01:20:48.558Z,11.80
2022-11-01T01:23:15.565Z,11.90
2022-11-01T01:25:43.118Z,11.90
2022-11-01T01:28:10.589Z,12.00
2022-11-01T01:30:41.472Z,12.30
2022-11-01T01:33:09.348Z,12.30
2022-11-01T01:35:38.521Z,12.40
2022-11-01T01:38:07.108Z,12.50
2022-11-01T01:40:35.071Z,12.50
2022-11-01T01:43:02.249Z,12.60
2022-11-01T01:45:36.123Z,12.50
2022-11-01T01:48:23.725Z,12.50
2022-11-01T01:51:05.192Z,12.40
2022-11-01T01:53:41.046Z,12.30
2022-11-01T01:56:13.021Z,12.30
2022-11-01T01:58:46.626Z,12.30
2022-11-01T02:01:14.040Z,12.20
2022-11-01T02:03:42.184Z,12.20
2022-11-01T02:08:57.049Z,12.00
2022-11-01T02:11:24.328Z,12.10
2022-11-01T02:13:53.364Z,12.20
2022-11-01T02:16:55.682Z,12.20
2022-11-01T02:20:18.612Z,12.30
2022-11-01T02:23:40.947Z,12.30
2022-11-01T02:26:45.126Z,12.30
2022-11-01T02:29:42.285Z,12.20
2022-11-01T02:32:15.531Z,12.20
2022-11-01T02:34:57.609Z,12.20
2022-11-01T02:37:49.104Z,12.20
2022-11-01T02:40:32.268Z,12.30
2022-11-01T02:43:10.650Z,12.30
2022-11-01T02:45:46.742Z,12.40
2022-11-01T02:48:16.714Z,12.60
2022-11-01T02:50:57.009Z,13.10
2022-11-01T02:53:24.303Z,13.30
2022-11-01T02:55:54.720Z,13.70
2022-11-01T02:58:29.219Z,13.80
2022-11-01T03:00:57.245Z,14.00
2022-11-01T03:03:34.477Z,14.30
2022-11-01T03:06:01.613Z,14.50
2022-11-01T03:08:51.165Z,14.80
2022-11-01T03:11:20.800Z,14.90
2022-11-01T03:14:01.804Z,14.80
2022-11-01T03:16:31.364Z,14.60
2022-11-01T03:19:07.268Z,14.30
2022-11-01T03:21:41.818Z,14.10
2022-11-01T03:24:23.040Z,14.00
2022-11-01T03:27:11.954Z,13.80
2022-11-01T03:29:42.474Z,13.80
2022-11-01T03:32:10.765Z,13.70
2022-11-01T03:34:39.278Z,13.60
2022-11-01T03:37:11.518Z,13.60
2022-11-01T03:39:47.843Z,13.50
2022-11-01T03:42:20.221Z,13.50
2022-11-01T03:44:58.509Z,13.50
2022-11-01T03:47:26.214Z,13.50
2022-11-01T03:50:21.976Z,13.50
2022-11-01T03:52:50.119Z,13.50
2022-11-01T03:55:19.478Z,13.50
2022-11-01T03:57:57.840Z,13.50
2022-11-01T04:00:35.252Z,13.50
2022-11-01T04:03:02.718Z,13.50
2022-11-01T04:05:32.362Z,13.50
2022-11-01T04:07:59.617Z,13.50
2022-11-01T04:10:28.976Z,13.50
2022-11-01T04:12:56.913Z,13.50
2022-11-01T04:15:44.148Z,13.50
2022-11-01T04:18:33.023Z,13.50
2022-11-01T04:21:10.700Z,13.50
2022-11-01T04:23:37.924Z,13.50
2022-11-01T04:26:07.295Z,13.50
2022-11-01T04:28:34.341Z,13.50
2022-11-01T04:31:01.468Z,13.50
2022-11-01T04:33:28.465Z,13.50
2022-11-01T04:35:55.507Z,13.50
2022-11-01T04:38:22.502Z,13.50
2022-11-01T04:40:49.733Z,13.60
2022-11-01T04:43:16.965Z,13.60
2022-11-01T04:45:44.028Z,13.60
2022-11-01T04:48:13.878Z,13.60
2022-11-01T04:50:42.224Z,13.60
2022-11-01T04:53:10.342Z,13.60
2022-11-01T04:55:37.629Z,13.60
2022-11-01T04:58:06.774Z,13.60
2022-11-01T05:00:34.636Z,13.60
2022-11-01T05:03:07.761Z,13.60
2022-11-01T05:05:35.507Z,13.50
2022-11-01T05:08:09.340Z,13.50
2022-11-01T05:10:42.298Z,13.50
2022-11-01T05:13:11.763Z,13.50
2022-11-01T05:15:40.002Z,13.50
2022-11-01T05:18:11.021Z,13.50
2022-11-01T05:20:38.044Z,13.60
2022-11-01T05:23:06.371Z,13.60
2022-11-01T05:25:37.118Z,13.50
2022-11-01T05:28:11.424Z,13.50
2022-11-01T05:30:38.918Z,13.50
2022-11-01T05:33:07.551Z,13.60
2022-11-01T05:35:36.280Z,13.60
2022-11-01T05:38:05.217Z,13.60
2022-11-01T05:40:33.232Z,13.50
2022-11-01T05:43:00.549Z,13.60
2022-11-01T05:45:28.018Z,13.60
2022-11-01T05:47:54.997Z,13.60
2022-11-01T05:50:22.017Z,13.60
2022-11-01T05:52:50.152Z,13.50
2022-11-01T05:55:17.572Z,13.50
2022-11-01T05:57:44.606Z,13.60
2022-11-01T06:00:12.493Z,13.50
2022-11-01T06:02:39.680Z,13.50
2022-11-01T06:05:07.006Z,13.50
2022-11-01T06:07:36.598Z,13.50
2022-11-01T06:10:05.156Z,13.50
2022-11-01T06:12:32.304Z,13.50
2022-11-01T06:14:59.403Z,13.50
2022-11-01T06:17:27.141Z,13.50
2022-11-01T06:19:54.206Z,13.50
2022-11-01T06:22:21.349Z,13.50
2022-11-01T06:24:48.502Z,13.40
2022-11-01T06:27:15.583Z,13.40
2022-11-01T06:29:42.718Z,13.40
2022-11-01T06:32:09.739Z,13.30
2022-11-01T06:34:40.774Z,13.30
2022-11-01T06:37:09.580Z,13.30
2022-11-01T06:39:36.773Z,13.30
2022-11-01T06:42:03.950Z,13.30
2022-11-01T06:44:30.980Z,13.30
2022-11-01T06:46:57.980Z,13.30
2022-11-01T06:49:25.556Z,13.30
2022-11-01T06:51:52.579Z,13.30
2022-11-01T06:54:19.573Z,13.30
2022-11-01T06:56:49.796Z,13.30
2022-11-01T06:59:17.024Z,13.30
2022-11-01T07:01:44.862Z,13.20
2022-11-01T07:06:44.589Z,13.20
2022-11-01T07:09:11.630Z,13.30
2022-11-01T07:11:39.405Z,13.30
2022-11-01T07:14:06.982Z,13.30
2022-11-01T07:16:34.013Z,13.30
2022-11-01T07:19:01.061Z,13.30
2022-11-01T07:21:28.852Z,13.30
2022-11-01T07:23:55.876Z,13.40
2022-11-01T07:26:24.472Z,13.40
2022-11-01T07:28:51.533Z,13.40
2022-11-01T07:31:18.521Z,13.40
2022-11-01T07:33:45.542Z,13.50
2022-11-01T07:36:12.623Z,13.50
2022-11-01T07:38:39.643Z,13.50
2022-11-01T07:41:07.059Z,13.50
2022-11-01T07:43:35.926Z,13.50
2022-11-01T07:46:07.351Z,13.50
2022-11-01T07:48:37.059Z,13.60
2022-11-01T07:51:06.109Z,13.60
2022-11-01T07:53:34.899Z,13.60
2022-11-01T07:56:02.836Z,13.70
2022-11-01T07:58:30.112Z,13.70
2022-11-01T08:00:57.183Z,13.80
2022-11-01T08:03:24.533Z,13.80
2022-11-01T08:05:51.713Z,13.80
2022-11-01T08:08:18.984Z,13.90
2022-11-01T08:10:46.492Z,13.90
2022-11-01T08:13:25.565Z,14.00
2022-11-01T08:15:53.783Z,14.00
2022-11-01T08:18:24.347Z,14.20
2022-11-01T08:20:51.945Z,14.20
2022-11-01T08:23:19.649Z,14.20
2022-11-01T08:25:46.778Z,14.20
2022-11-01T08:28:18.370Z,14.30
2022-11-01T08:30:48.403Z,14.40
2022-11-01T08:33:15.483Z,14.40
2022-11-01T08:35:49.813Z,14.50
2022-11-01T08:38:17.658Z,14.50
2022-11-01T08:40:44.640Z,14.60
2022-11-01T08:43:11.671Z,14.60
2022-11-01T08:45:39.094Z,14.60
2022-11-01T08:48:07.508Z,14.60
2022-11-01T08:50:35.097Z,14.70
2022-11-01T08:53:11.563Z,14.70
2022-11-01T08:55:39.111Z,14.70
2022-11-01T08:58:07.033Z,14.70
2022-11-01T09:00:35.318Z,14.70
2022-11-01T09:03:02.685Z,14.60
2022-11-01T09:05:31.509Z,14.60
2022-11-01T09:08:00.875Z,14.60
2022-11-01T09:10:33.036Z,14.60
2022-11-01T09:13:01.791Z,14.70
2022-11-01T09:15:29.689Z,14.60
2022-11-01T09:17:56.877Z,14.60
2022-11-01T09:20:24.933Z,14.50
2022-11-01T09:22:53.305Z,14.50
2022-11-01T09:25:20.352Z,14.50
2022-11-01T09:27:47.400Z,14.50
2022-11-01T09:30:14.639Z,14.40
2022-11-01T09:32:41.680Z,14.30
2022-11-01T09:35:09.221Z,14.30
2022-11-01T09:37:36.281Z,14.30
2022-11-01T09:40:03.685Z,14.30
2022-11-01T09:42:35.842Z,14.30
2022-11-01T09:45:29.846Z,14.30
2022-11-01T09:47:58.454Z,14.30
2022-11-01T09:50:48.294Z,14.40
2022-11-01T09:53:22.389Z,14.40
2022-11-01T09:56:10.382Z,13.70
2022-11-01T09:58:55.191Z,13.10
2022-11-01T10:02:19.488Z,12.50
2022-11-01T10:05:20.714Z,12.10
2022-11-01T10:08:10.849Z,11.90
2022-11-01T10:10:46.460Z,11.80
2022-11-01T10:13:43.500Z,11.80
2022-11-01T10:16:38.856Z,11.80
2022-11-01T10:19:17.615Z,11.80
2022-11-01T10:22:02.097Z,11.80
2022-11-01T10:24:41.494Z,11.80
2022-11-01T10:27:16.259Z,11.80
2022-11-01T10:30:08.043Z,11.80
2022-11-01T10:32:48.068Z,11.90
2022-11-01T10:35:40.012Z,11.90
2022-11-01T10:38:54.191Z,12.00
2022-11-01T10:41:43.495Z,12.00
2022-11-01T10:44:29.338Z,12.10
2022-11-01T10:46:58.745Z,12.20
2022-11-01T10:49:53.003Z,12.30
2022-11-01T10:52:35.672Z,12.30
2022-11-01T10:55:03.596Z,12.30
2022-11-01T10:57:44.987Z,12.40
2022-11-01T11:00:18.937Z,12.50
2022-11-01T11:02:52.147Z,12.70
2022-11-01T11:05:21.021Z,12.90
2022-11-01T11:07:48.380Z,13.30
2022-11-01T11:10:26.745Z,13.60
2022-11-01T11:13:01.138Z,14.10
2022-11-01T11:15:44.515Z,14.60
2022-11-01T11:18:27.677Z,15.20
2022-11-01T11:21:09.061Z,15.70
2022-11-01T11:23:44.215Z,16.10
2022-11-01T11:26:19.254Z,16.00
2022-11-01T11:28:52.227Z,15.60
2022-11-01T11:31:28.487Z,15.30
2022-11-01T11:34:13.214Z,15.70
2022-11-01T11:36:45.625Z,15.90
2022-11-01T11:39:37.122Z,16.30
2022-11-01T11:42:20.125Z,16.70
2022-11-01T11:44:53.858Z,16.80
2022-11-01T11:47:29.139Z,16.70
2022-11-01T11:49:58.388Z,16.90
2022-11-01T11:52:38.609Z,17.00
2022-11-01T11:55:36.948Z,17.20
2022-11-01T11:58:06.520Z,17.70
2022-11-01T12:00:37.572Z,17.80
2022-11-01T12:03:08.194Z,17.40
2022-11-01T12:05:35.493Z,17.30
2022-11-01T12:08:02.753Z,17.40
2022-11-01T12:10:39.364Z,17.80
2022-11-01T12:13:38.129Z,18.00
2022-11-01T12:16:10.480Z,18.60
2022-11-01T12:18:54.731Z,19.00
2022-11-01T12:21:36.051Z,18.50
2022-11-01T12:24:18.130Z,19.10
2022-11-01T12:26:46.146Z,19.40
2022-11-01T12:29:30.715Z,19.40
2022-11-01T12:32:06.825Z,19.70
2022-11-01T12:34:41.457Z,19.60
2022-11-01T12:37:20.189Z,19.30
2022-11-01T12:40:06.035Z,18.90
2022-11-01T12:42:52.544Z,19.20
2022-11-01T12:45:55.488Z,19.80
2022-11-01T12:48:40.065Z,20.40
2022-11-01T12:51:26.138Z,20.00
2022-11-01T12:54:22.899Z,19.30
2022-11-01T12:56:49.950Z,19.30
2022-11-01T12:59:31.263Z,19.60
2022-11-01T13:02:16.951Z,18.90
2022-11-01T13:05:21.510Z,19.30
2022-11-01T13:08:28.786Z,18.80
2022-11-01T13:11:09.664Z,18.80
2022-11-01T13:13:56.742Z,18.30
2022-11-01T13:16:33.173Z,17.70
2022-11-01T13:19:31.292Z,18.00
2022-11-01T13:22:12.309Z,17.70
2022-11-01T13:24:59.501Z,17.60
2022-11-01T13:27:43.529Z,17.90
2022-11-01T13:30:18.446Z,17.90
2022-11-01T13:33:13.040Z,17.40
2022-11-01T13:36:14.666Z,17.80
2022-11-01T13:38:52.049Z,18.30
2022-11-01T13:41:39.270Z,18.40
2022-11-01T13:44:16.892Z,18.40
2022-11-01T13:47:11.399Z,18.20
2022-11-01T13:50:09.550Z,18.20
2022-11-01T13:52:48.145Z,17.60
2022-11-01T13:56:03.336Z,17.40
2022-11-01T13:58:32.749Z,17.40
2022-11-01T14:01:37.402Z,17.30
2022-11-01T14:04:17.084Z,17.30
2022-11-01T14:06:55.314Z,17.20
2022-11-01T14:09:27.912Z,17.30
2022-11-01T14:11:59.191Z,17.30
2022-11-01T14:14:46.418Z,17.10
2022-11-01T14:17:16.498Z,17.00
2022-11-01T14:19:44.275Z,17.00
2022-11-01T14:22:26.190Z,16.70
2022-11-01T14:25:13.629Z,16.50
2022-11-01T14:27:50.525Z,16.20
2022-11-01T14:30:27.936Z,16.20
2022-11-01T14:33:03.257Z,16.10
2022-11-01T14:35:37.876Z,15.90
2022-11-01T14:38:20.333Z,15.80
2022-11-01T14:40:57.253Z,15.70
2022-11-01T14:43:47.832Z,15.60
2022-11-01T14:46:23.825Z,15.40
2022-11-01T14:49:07.169Z,15.40
2022-11-01T14:52:01.098Z,15.40
2022-11-01T14:54:49.089Z,15.30
2022-11-01T14:57:29.126Z,15.30
2022-11-01T14:59:58.264Z,15.20
2022-11-01T15:02:29.148Z,15.10
2022-11-01T15:05:01.756Z,15.00
2022-11-01T15:07:42.018Z,15.00
2022-11-01T15:10:14.770Z,15.00
2022-11-01T15:12:53.368Z,14.90
2022-11-01T15:15:31.596Z,14.80
2022-11-01T15:18:14.401Z,14.70
2022-11-01T15:20:47.821Z,14.60
2022-11-01T15:23:45.655Z,14.60
2022-11-01T15:26:18.993Z,14.70
2022-11-01T15:28:53.620Z,14.60
2022-11-01T15:31:22.060Z,14.50
2022-11-01T15:33:59.838Z,14.50
2022-11-01T15:36:34.029Z,14.40
2022-11-01T15:39:05.043Z,14.30
2022-11-01T15:41:35.223Z,14.20
2022-11-01T15:44:06.255Z,14.30
2022-11-01T15:46:39.803Z,14.10
2022-11-01T15:49:19.640Z,14.00
2022-11-01T15:51:52.473Z,13.80
2022-11-01T15:54:42.801Z,13.70
2022-11-01T15:57:23.488Z,13.70
2022-11-01T16:00:14.725Z,13.50
2022-11-01T16:02:50.287Z,13.10
2022-11-01T16:05:23.421Z,12.80
2022-11-01T16:07:51.357Z,12.50
2022-11-01T16:10:29.850Z,12.40
2022-11-01T16:12:58.493Z,12.20
2022-11-01T16:15:35.417Z,12.10
2022-11-01T16:18:16.828Z,12.00
2022-11-01T16:20:47.281Z,11.90
2022-11-01T16:23:32.532Z,11.90
2022-11-01T16:26:05.041Z,11.70
2022-11-01T16:28:40.559Z,11.60
2022-11-01T16:31:29.597Z,11.30
2022-11-01T16:33:57.885Z,11.10
2022-11-01T16:36:42.863Z,10.80
2022-11-01T16:39:34.079Z,10.70
2022-11-01T16:42:01.061Z,10.70
2022-11-01T16:44:28.102Z,10.70
2022-11-01T16:46:55.402Z,10.60
2022-11-01T16:49:29.615Z,10.60
2022-11-01T16:51:56.894Z,10.60
2022-11-01T16:54:27.402Z,10.60
2022-11-01T16:56:58.481Z,10.70
2022-11-01T16:59:35.723Z,10.80
2022-11-01T17:02:20.072Z,10.70
2022-11-01T17:04:51.957Z,10.90
2022-11-01T17:07:19.149Z,10.90
2022-11-01T17:09:46.286Z,10.90
2022-11-01T17:12:13.317Z,10.90
2022-11-01T17:17:19.778Z,10.80
2022-11-01T17:19:53.704Z,10.70
2022-11-01T17:22:28.957Z,10.70
2022-11-01T17:24:56.448Z,10.60
2022-11-01T17:27:23.589Z,10.50
2022-11-01T17:29:51.782Z,10.40
2022-11-01T17:32:18.952Z,10.20
2022-11-01T17:34:48.242Z,10.10
2022-11-01T17:37:19.544Z,10.00
2022-11-01T17:39:46.539Z,9.90
2022-11-01T17:42:13.556Z,9.70
2022-11-01T17:44:40.592Z,9.60
2022-11-01T17:47:13.798Z,9.40
2022-11-01T17:49:41.182Z,9.40
2022-11-01T17:52:08.258Z,9.30
2022-11-01T17:54:35.275Z,9.20
2022-11-01T17:57:02.309Z,9.10
2022-11-01T17:59:29.509Z,9.00
2022-11-01T18:01:56.804Z,8.90
2022-11-01T18:04:23.997Z,8.80
2022-11-01T18:06:51.516Z,8.80
2022-11-01T18:09:24.815Z,8.80
2022-11-01T18:12:07.986Z,8.80
2022-11-01T18:15:00.528Z,8.80
2022-11-01T18:17:55.339Z,8.80
2022-11-01T18:20:33.984Z,8.80
2022-11-01T18:23:11.047Z,8.70
2022-11-01T18:25:47.469Z,8.70
2022-11-01T18:28:26.545Z,8.60
2022-11-01T18:31:02.968Z,8.50
2022-11-01T18:34:20.021Z,8.40
2022-11-01T18:37:04.035Z,8.30
2022-11-01T18:39:40.474Z,8.10
2022-11-01T18:42:10.319Z,8.10
2022-11-01T18:44:38.355Z,8.00
2022-11-01T18:47:26.520Z,8.00
2022-11-01T18:49:54.145Z,8.00
2022-11-01T18:52:22.596Z,8.00
2022-11-01T18:54:57.075Z,8.00
2022-11-01T18:57:24.884Z,7.90
2022-11-01T18:59:53.778Z,7.90
2022-11-01T19:02:27.145Z,7.90
2022-11-01T19:05:20.476Z,7.90
2022-11-01T19:10:42.411Z,7.80
2022-11-01T19:13:20.915Z,7.80
2022-11-01T19:15:53.893Z,7.70
2022-11-01T19:18:23.934Z,7.70
2022-11-01T19:20:56.943Z,7.80
2022-11-01T19:23:40.584Z,7.70
2022-11-01T19:26:37.922Z,7.80
2022-11-01T19:29:17.072Z,7.70
2022-11-01T19:31:46.051Z,7.70
2022-11-01T19:34:23.105Z,7.70
2022-11-01T19:36:52.809Z,7.70
2022-11-01T19:39:37.298Z,7.60
2022-11-01T19:42:19.228Z,7.60
2022-11-01T19:44:47.454Z,7.60
2022-11-01T19:47:39.818Z,7.60
2022-11-01T19:50:22.380Z,7.60
2022-11-01T19:52:56.555Z,7.60
2022-11-01T19:55:36.816Z,7.60
2022-11-01T19:58:30.191Z,7.60
2022-11-01T20:01:46.388Z,7.60
2022-11-01T20:04:29.277Z,7.50
2022-11-01T20:07:01.390Z,7.50
2022-11-01T20:09:41.435Z,7.50
2022-11-01T20:12:10.384Z,7.50
2022-11-01T20:14:39.223Z,7.40
2022-11-01T20:17:06.850Z,7.40
2022-11-01T20:19:34.320Z,7.40
2022-11-01T20:22:02.232Z,7.40
2022-11-01T20:24:31.099Z,7.40
2022-11-01T20:27:00.413Z,7.40
2022-11-01T20:29:28.050Z,7.50
2022-11-01T20:31:55.263Z,7.50
2022-11-01T20:34:23.102Z,7.50
2022-11-01T20:37:14.972Z,7.50
2022-11-01T20:39:37.285Z,7.50
2022-11-01T20:42:05.040Z,7.40
2022-11-01T20:44:32.511Z,7.40
2022-11-01T20:46:59.782Z,7.40
2022-11-01T20:49:27.499Z,7.40
2022-11-01T20:51:57.777Z,7.40
2022-11-01T20:54:31.724Z,7.30
2022-11-01T20:56:58.988Z,7.30
2022-11-01T20:59:26.055Z,7.30
2022-11-01T21:01:56.068Z,7.30
2022-11-01T21:04:23.197Z,7.30
2022-11-01T21:06:50.196Z,7.30
2022-11-01T21:09:43.798Z,7.30
2022-11-01T21:12:45.185Z,7.30
2022-11-01T21:15:28.752Z,7.20
2022-11-01T21:18:08.161Z,7.20
2022-11-01T21:20:42.828Z,7.20
2022-11-01T21:23:24.356Z,7.20
2022-11-01T21:25:54.310Z,7.20
2022-11-01T21:28:45.032Z,7.20
2022-11-01T21:31:16.074Z,7.10
2022-11-01T21:33:57.365Z,7.10
2022-11-01T21:36:36.746Z,7.10
2022-11-01T21:39:19.952Z,7.10
2022-11-01T21:42:33.416Z,7.00
2022-11-01T21:45:22.358Z,7.10
2022-11-01T21:47:51.592Z,7.10
2022-11-01T21:50:18.597Z,7.10
2022-11-01T21:52:46.127Z,7.10
2022-11-01T21:55:13.419Z,7.10
2022-11-01T21:57:40.465Z,7.10
2022-11-01T22:00:08.972Z,7.10
2022-11-01T22:02:36.153Z,7.10
2022-11-01T22:05:04.485Z,7.10
2022-11-01T22:07:31.679Z,7.10
2022-11-01T22:09:59.316Z,7.10
2022-11-01T22:12:26.292Z,7.10
2022-11-01T22:14:53.334Z,7.10
2022-11-01T22:17:20.368Z,7.10
2022-11-01T22:19:47.369Z,7.10
2022-11-01T22:22:14.422Z,7.10
2022-11-01T22:24:41.474Z,7.10
2022-11-01T22:27:08.505Z,7.10
2022-11-01T22:29:35.654Z,7.10
2022-11-01T22:32:02.780Z,7.10
2022-11-01T22:34:29.861Z,7.00
2022-11-01T22:36:57.207Z,7.00
2022-11-01T22:39:26.908Z,7.00
2022-11-01T22:41:54.995Z,7.00
2022-11-01T22:44:31.897Z,7.10
2022-11-01T22:47:02.067Z,7.10
2022-11-01T22:49:41.043Z,7.10
2022-11-01T22:52:48.337Z,7.20
2022-11-01T22:55:25.005Z,7.20
2022-11-01T22:57:58.709Z,7.30
2022-11-01T23:00:36.407Z,7.50
2022-11-01T23:03:26.389Z,7.50
2022-11-01T23:05:59.163Z,7.60
2022-11-01T23:08:44.081Z,7.60
2022-11-01T23:11:35.341Z,7.60
2022-11-01T23:14:37.637Z,7.60
2022-11-01T23:17:24.210Z,7.60
2022-11-01T23:20:01.936Z,7.50
2022-11-01T23:22:36.718Z,7.50
2022-11-01T23:25:05.345Z,7.50
2022-11-01T23:27:32.625Z,7.50
2022-11-01T23:30:02.059Z,7.60
2022-11-01T23:32:30.871Z,7.60
2022-11-01T23:35:18.464Z,7.60
2022-11-01T23:37:46.674Z,7.80
2022-11-01T23:40:20.130Z,7.80
2022-11-01T23:42:48.925Z,7.90
2022-11-01T23:45:36.501Z,8.00
2022-11-01T23:48:06.535Z,8.30
2022-11-01T23:50:36.241Z,8.70
2022-11-01T23:53:13.133Z,9.00
2022-11-01T23:55:52.383Z,9.30
2022-11-01T23:58:39.631Z,9.50
